createdAt,value
2023-03-13T00:01:41.419Z,96.00
2023-03-13T00:04:08.761Z,96.60
2023-03-13T00:06:37.039Z,96.30
2023-03-13T00:09:05.527Z,97.00
2023-03-13T00:11:32.929Z,96.90
2023-03-13T00:14:01.180Z,97.80
2023-03-13T00:16:28.490Z,97.80
2023-03-13T00:18:56.160Z,98.00
2023-03-13T00:21:24.453Z,98.50
2023-03-13T00:23:51.859Z,98.80
2023-03-13T00:26:20.114Z,98.90
2023-03-13T00:28:47.123Z,98.60
2023-03-13T00:31:18.504Z,98.40
2023-03-13T00:33:46.986Z,97.70
2023-03-13T00:36:18.083Z,97.90
2023-03-13T00:38:45.133Z,99.90
2023-03-13T00:41:13.564Z,99.90
2023-03-13T00:43:41.389Z,99.90
2023-03-13T00:46:08.831Z,99.90
2023-03-13T00:48:35.963Z,99.90
2023-03-13T00:51:03.469Z,99.90
2023-03-13T00:53:30.374Z,99.90
2023-03-13T00:56:07.138Z,99.90
2023-03-13T00:58:38.354Z,99.90
2023-03-13T01:01:19.581Z,99.90
2023-03-13T01:03:48.023Z,99.90
2023-03-13T01:06:16.481Z,99.90
2023-03-13T01:08:43.412Z,99.90
2023-03-13T01:11:12.128Z,99.90
2023-03-13T01:13:39.541Z,99.90
2023-03-13T01:16:10.739Z,99.90
2023-03-13T01:18:38.798Z,99.90
2023-03-13T01:21:06.499Z,99.90
2023-03-13T01:23:33.598Z,99.90
2023-03-13T01:26:00.965Z,99.90
2023-03-13T01:28:27.952Z,99.90
2023-03-13T01:30:54.965Z,99.90
2023-03-13T01:33:22.018Z,99.90
2023-03-13T01:35:48.939Z,99.90
2023-03-13T01:38:15.892Z,99.90
2023-03-13T01:40:44.163Z,99.90
2023-03-13T01:43:26.489Z,99.90
2023-03-13T01:45:54.684Z,99.90
2023-03-13T01:48:26.169Z,99.90
2023-03-13T01:50:54.350Z,99.90
2023-03-13T01:53:21.308Z,99.90
2023-03-13T01:55:48.288Z,99.90
2023-03-13T01:58:17.709Z,99.90
2023-03-13T02:00:45.769Z,99.90
2023-03-13T02:03:14.758Z,99.90
2023-03-13T02:05:42.839Z,99.90
2023-03-13T02:08:19.159Z,99.90
2023-03-13T02:10:54.337Z,99.90
2023-03-13T02:13:21.559Z,99.90
2023-03-13T02:15:49.015Z,99.90
2023-03-13T02:18:16.370Z,99.90
2023-03-13T02:20:43.434Z,99.90
2023-03-13T02:23:14.755Z,99.90
2023-03-13T02:25:46.786Z,99.90
2023-03-13T02:28:16.153Z,99.90
2023-03-13T02:30:43.894Z,99.90
2023-03-13T02:33:11.719Z,99.90
2023-03-13T02:35:39.398Z,99.90
2023-03-13T02:38:07.816Z,99.90
2023-03-13T02:40:39.613Z,99.90
2023-03-13T02:43:12.240Z,99.90
2023-03-13T02:45:39.215Z,99.90
2023-03-13T02:48:06.340Z,99.90
2023-03-13T02:50:33.646Z,99.90
2023-03-13T02:53:03.339Z,99.90
2023-03-13T02:55:33.022Z,99.90
2023-03-13T02:57:59.982Z,99.90
2023-03-13T03:00:27.333Z,99.90
2023-03-13T03:02:54.592Z,99.90
2023-03-13T03:05:22.445Z,99.90
2023-03-13T03:07:49.889Z,99.90
2023-03-13T03:10:17.909Z,99.90
2023-03-13T03:12:44.779Z,99.90
2023-03-13T03:15:12.119Z,99.90
2023-03-13T03:17:39.320Z,99.90
2023-03-13T03:20:12.115Z,99.90
2023-03-13T03:22:40.943Z,99.90
2023-03-13T03:25:09.470Z,99.90
2023-03-13T03:27:36.941Z,99.90
2023-03-13T03:30:07.125Z,99.90
2023-03-13T03:32:34.158Z,99.90
2023-03-13T03:35:01.062Z,99.90
2023-03-13T03:37:28.020Z,99.90
2023-03-13T03:39:54.875Z,99.90
2023-03-13T03:42:21.907Z,99.90
2023-03-13T03:44:48.824Z,99.90
2023-03-13T03:47:15.723Z,99.90
2023-03-13T03:49:42.602Z,99.90
2023-03-13T03:52:09.566Z,99.90
2023-03-13T03:54:36.538Z,99.90
2023-03-13T03:57:03.490Z,99.90
2023-03-13T03:59:30.433Z,99.90
2023-03-13T04:01:57.510Z,99.90
2023-03-13T04:04:24.376Z,99.90
2023-03-13T04:06:51.285Z,99.90
2023-03-13T04:09:18.101Z,99.90
2023-03-13T04:11:45.049Z,99.90
2023-03-13T04:14:12.100Z,99.90
2023-03-13T04:16:39.069Z,99.90
2023-03-13T04:19:06.014Z,99.90
2023-03-13T04:21:32.991Z,99.90
2023-03-13T04:24:00.151Z,99.90
2023-03-13T04:26:27.089Z,99.90
2023-03-13T04:28:53.992Z,99.90
2023-03-13T04:31:20.869Z,99.90
2023-03-13T04:33:47.849Z,99.90
2023-03-13T04:36:14.865Z,99.90
2023-03-13T04:38:41.812Z,99.90
2023-03-13T04:41:08.698Z,99.90
2023-03-13T04:43:35.684Z,99.90
2023-03-13T04:46:02.677Z,99.90
2023-03-13T04:48:29.606Z,99.90
2023-03-13T04:50:56.600Z,99.90
2023-03-13T04:53:23.604Z,99.90
2023-03-13T04:55:51.044Z,99.90
2023-03-13T04:58:18.022Z,99.90
2023-03-13T05:00:44.841Z,99.90
2023-03-13T05:03:11.744Z,99.90
2023-03-13T05:05:38.779Z,99.90
2023-03-13T05:08:06.364Z,99.90
2023-03-13T05:10:33.429Z,99.90
2023-03-13T05:13:00.472Z,99.90
2023-03-13T05:15:27.298Z,99.90
2023-03-13T05:17:54.810Z,99.90
2023-03-13T05:20:21.904Z,99.90
2023-03-13T05:22:50.059Z,99.90
2023-03-13T05:25:17.002Z,99.90
2023-03-13T05:27:43.975Z,99.90
2023-03-13T05:30:11.292Z,99.90
2023-03-13T05:32:38.281Z,99.90
2023-03-13T05:35:05.368Z,99.90
2023-03-13T05:37:32.268Z,99.90
2023-03-13T05:39:59.266Z,99.90
2023-03-13T05:42:26.997Z,99.90
2023-03-13T05:44:53.912Z,99.90
2023-03-13T05:47:20.877Z,99.90
2023-03-13T05:49:47.857Z,99.90
2023-03-13T05:52:14.706Z,99.90
2023-03-13T05:54:41.665Z,99.90
2023-03-13T05:57:08.734Z,99.90
2023-03-13T05:59:35.648Z,99.90
2023-03-13T06:02:02.591Z,99.90
2023-03-13T06:04:29.775Z,99.90
2023-03-13T06:06:56.859Z,99.90
2023-03-13T06:09:23.888Z,99.90
2023-03-13T06:11:50.835Z,99.90
2023-03-13T06:14:17.859Z,96.20
2023-03-13T06:16:44.753Z,93.70
2023-03-13T06:19:12.225Z,93.80
2023-03-13T06:21:39.186Z,92.40
2023-03-13T06:24:06.379Z,91.40
2023-03-13T06:26:33.372Z,90.90
2023-03-13T06:29:00.347Z,91.10
2023-03-13T06:31:27.365Z,91.50
2023-03-13T06:33:54.668Z,91.70
2023-03-13T06:36:22.180Z,91.20
2023-03-13T06:38:49.146Z,88.80
2023-03-13T06:41:16.415Z,89.10
2023-03-13T06:43:43.641Z,89.20
2023-03-13T06:46:16.266Z,89.60
2023-03-13T06:48:44.481Z,90.10
2023-03-13T06:51:12.208Z,89.90
2023-03-13T06:53:39.206Z,87.80
2023-03-13T06:56:06.695Z,85.70
2023-03-13T06:58:34.032Z,84.70
2023-03-13T07:01:06.547Z,84.40
2023-03-13T07:03:33.679Z,82.20
2023-03-13T07:06:00.743Z,83.10
2023-03-13T07:08:27.872Z,81.60
2023-03-13T07:10:58.074Z,79.90
2023-03-13T07:13:24.993Z,79.40
2023-03-13T07:15:52.126Z,78.00
2023-03-13T07:18:18.987Z,77.70
2023-03-13T07:20:45.910Z,75.90
2023-03-13T07:23:12.715Z,75.10
2023-03-13T07:25:39.982Z,74.30
2023-03-13T07:28:06.844Z,75.00
2023-03-13T07:30:33.667Z,74.20
2023-03-13T07:33:00.753Z,73.10
2023-03-13T07:35:27.671Z,73.90
2023-03-13T07:37:54.552Z,74.30
2023-03-13T07:40:21.447Z,74.60
2023-03-13T07:42:48.348Z,74.60
2023-03-13T07:45:15.241Z,73.30
2023-03-13T07:47:42.256Z,72.40
2023-03-13T07:50:09.568Z,70.90
2023-03-13T07:52:36.558Z,69.30
2023-03-13T07:55:03.558Z,69.00
2023-03-13T07:57:30.858Z,68.70
2023-03-13T07:59:57.713Z,66.60
2023-03-13T08:02:24.637Z,67.40
2023-03-13T08:04:52.281Z,66.30
2023-03-13T08:07:19.221Z,66.60
2023-03-13T08:09:46.380Z,66.40
2023-03-13T08:12:13.306Z,64.90
2023-03-13T08:14:40.213Z,65.20
2023-03-13T08:17:07.171Z,65.80
2023-03-13T08:19:34.278Z,65.30
2023-03-13T08:22:01.258Z,65.90
2023-03-13T08:24:28.202Z,65.20
2023-03-13T08:26:55.051Z,66.00
2023-03-13T08:29:22.003Z,65.90
2023-03-13T08:31:50.239Z,63.90
2023-03-13T08:34:17.855Z,63.20
2023-03-13T08:36:44.792Z,63.00
2023-03-13T08:39:15.556Z,61.60
2023-03-13T08:41:42.635Z,61.30
2023-03-13T08:44:13.913Z,61.30
2023-03-13T08:46:40.903Z,60.50
2023-03-13T08:49:08.035Z,61.50
2023-03-13T08:51:35.594Z,60.40
2023-03-13T08:54:03.393Z,61.10
2023-03-13T08:56:31.138Z,61.20
2023-03-13T08:59:00.003Z,59.90
2023-03-13T09:01:28.395Z,59.60
2023-03-13T09:03:56.022Z,59.10
2023-03-13T09:06:23.168Z,58.90
2023-03-13T09:08:49.994Z,57.50
2023-03-13T09:11:17.986Z,57.40
2023-03-13T09:13:46.360Z,58.50
2023-03-13T09:16:23.067Z,58.30
2023-03-13T09:18:50.340Z,58.00
2023-03-13T09:21:21.570Z,58.10
2023-03-13T09:23:48.759Z,56.90
2023-03-13T09:26:16.085Z,57.80
2023-03-13T09:28:43.830Z,57.40
2023-03-13T09:31:12.280Z,57.50
2023-03-13T09:33:39.546Z,57.20
2023-03-13T09:36:06.966Z,57.80
2023-03-13T09:38:33.910Z,58.70
2023-03-13T09:41:16.245Z,58.40
2023-03-13T09:43:46.343Z,57.60
2023-03-13T09:46:36.714Z,58.70
2023-03-13T09:49:36.132Z,58.50
2023-03-13T09:52:11.835Z,58.70
2023-03-13T09:54:40.400Z,58.60
2023-03-13T09:57:10.419Z,57.80
2023-03-13T09:59:43.681Z,59.10
2023-03-13T10:02:19.743Z,57.50
2023-03-13T10:04:50.156Z,57.90
2023-03-13T10:07:17.139Z,57.10
2023-03-13T10:09:44.163Z,57.80
2023-03-13T10:12:21.532Z,57.00
2023-03-13T10:14:48.452Z,58.10
2023-03-13T10:17:15.326Z,57.60
2023-03-13T10:19:43.622Z,57.80
2023-03-13T10:22:15.229Z,57.10
2023-03-13T10:25:00.637Z,57.10
2023-03-13T10:27:27.724Z,57.50
2023-03-13T10:29:54.648Z,57.30
2023-03-13T10:32:21.971Z,57.90
2023-03-13T10:34:51.567Z,57.70
2023-03-13T10:37:23.369Z,57.90
2023-03-13T10:39:50.918Z,58.10
2023-03-13T10:42:28.360Z,56.90
2023-03-13T10:44:59.526Z,57.30
2023-03-13T10:47:26.753Z,57.90
2023-03-13T10:49:57.359Z,57.50
2023-03-13T10:52:35.434Z,57.00
2023-03-13T10:55:04.548Z,56.60
2023-03-13T10:57:32.359Z,56.40
2023-03-13T10:59:59.729Z,55.50
2023-03-13T11:02:36.290Z,55.70
2023-03-13T11:05:03.996Z,56.30
2023-03-13T11:07:34.682Z,55.20
2023-03-13T11:10:13.765Z,55.30
2023-03-13T11:12:44.727Z,55.70
2023-03-13T11:15:23.618Z,55.10
2023-03-13T11:17:59.619Z,55.10
2023-03-13T11:20:33.333Z,55.40
2023-03-13T11:23:15.153Z,55.70
2023-03-13T11:26:01.384Z,55.20
2023-03-13T11:28:47.224Z,54.60
2023-03-13T11:31:30.153Z,53.70
2023-03-13T11:34:05.783Z,54.10
2023-03-13T11:36:39.109Z,54.00
2023-03-13T11:39:24.565Z,53.90
2023-03-13T11:42:02.160Z,53.40
2023-03-13T11:44:39.461Z,53.40
2023-03-13T11:47:21.655Z,53.70
2023-03-13T11:49:55.706Z,52.70
2023-03-13T11:52:30.358Z,53.40
2023-03-13T11:55:13.260Z,53.20
2023-03-13T11:57:52.159Z,53.50
2023-03-13T12:00:25.115Z,53.60
2023-03-13T12:02:55.112Z,52.90
2023-03-13T12:05:23.226Z,51.80
2023-03-13T12:07:56.137Z,52.30
2023-03-13T12:10:49.484Z,51.70
2023-03-13T12:13:36.767Z,51.70
2023-03-13T12:16:08.331Z,49.70
2023-03-13T12:18:38.815Z,49.20
2023-03-13T12:21:14.096Z,49.80
2023-03-13T12:23:47.077Z,49.60
2023-03-13T12:26:30.834Z,48.70
2023-03-13T12:29:03.323Z,49.00
2023-03-13T12:31:34.182Z,49.00
2023-03-13T12:34:01.202Z,48.50
2023-03-13T12:36:39.515Z,48.70
2023-03-13T12:39:24.693Z,48.60
2023-03-13T12:42:11.790Z,49.20
2023-03-13T12:44:39.654Z,49.60
2023-03-13T12:47:09.689Z,48.30
2023-03-13T12:49:43.478Z,47.50
2023-03-13T12:52:16.757Z,48.10
2023-03-13T12:54:46.858Z,48.30
2023-03-13T12:57:16.922Z,47.80
2023-03-13T12:59:46.588Z,47.70
2023-03-13T13:02:18.894Z,47.30
2023-03-13T13:04:47.309Z,48.00
2023-03-13T13:07:27.353Z,47.70
2023-03-13T13:10:09.289Z,46.50
2023-03-13T13:12:40.320Z,47.50
2023-03-13T13:15:23.214Z,46.50
2023-03-13T13:17:54.976Z,46.00
2023-03-13T13:20:31.341Z,46.40
2023-03-13T13:23:18.156Z,45.60
2023-03-13T13:25:45.130Z,45.80
2023-03-13T13:28:22.132Z,44.80
2023-03-13T13:30:50.047Z,45.70
2023-03-13T13:33:29.188Z,45.50
2023-03-13T13:36:21.517Z,45.20
2023-03-13T13:38:48.484Z,45.10
2023-03-13T13:41:15.459Z,44.30
2023-03-13T13:43:46.607Z,44.50
2023-03-13T13:46:13.449Z,43.80
2023-03-13T13:48:43.577Z,43.20
2023-03-13T13:51:16.314Z,43.10
2023-03-13T13:53:47.184Z,42.50
2023-03-13T13:56:41.310Z,42.70
2023-03-13T13:59:20.572Z,42.30
2023-03-13T14:01:48.886Z,42.80
2023-03-13T14:04:17.536Z,42.90
2023-03-13T14:06:47.818Z,43.70
2023-03-13T14:09:20.924Z,43.00
2023-03-13T14:11:47.979Z,42.30
2023-03-13T14:14:19.489Z,42.40
2023-03-13T14:16:47.973Z,42.60
2023-03-13T14:19:30.143Z,41.80
2023-03-13T14:22:04.661Z,41.60
2023-03-13T14:24:31.942Z,41.70
2023-03-13T14:26:59.045Z,42.10
2023-03-13T14:29:33.556Z,42.30
2023-03-13T14:32:05.512Z,41.70
2023-03-13T14:34:33.410Z,41.60
2023-03-13T14:37:17.425Z,40.80
2023-03-13T14:39:45.792Z,40.60
2023-03-13T14:42:14.037Z,41.30
2023-03-13T14:44:44.361Z,41.40
2023-03-13T14:47:32.674Z,41.80
2023-03-13T14:50:10.347Z,41.50
2023-03-13T14:52:40.096Z,41.20
2023-03-13T14:55:26.058Z,41.00
2023-03-13T14:57:57.751Z,41.30
2023-03-13T15:00:38.708Z,40.90
2023-03-13T15:03:16.865Z,40.80
2023-03-13T15:05:44.894Z,40.80
2023-03-13T15:08:16.182Z,41.60
2023-03-13T15:10:43.399Z,40.60
2023-03-13T15:13:29.512Z,39.60
2023-03-13T15:15:57.103Z,38.90
2023-03-13T15:18:25.423Z,38.50
2023-03-13T15:20:53.738Z,37.50
2023-03-13T15:23:21.248Z,36.70
2023-03-13T15:25:48.301Z,37.60
2023-03-13T15:28:17.169Z,38.00
2023-03-13T15:30:44.575Z,37.60
2023-03-13T15:33:19.687Z,38.40
2023-03-13T15:35:47.022Z,38.40
2023-03-13T15:38:15.117Z,37.80
2023-03-13T15:40:42.600Z,38.50
2023-03-13T15:43:09.753Z,38.40
2023-03-13T15:45:37.334Z,38.00
2023-03-13T15:48:11.065Z,38.20
2023-03-13T15:50:38.036Z,38.30
2023-03-13T15:53:11.899Z,38.40
2023-03-13T15:55:39.079Z,39.10
2023-03-13T15:58:05.997Z,38.80
2023-03-13T16:00:32.896Z,39.10
2023-03-13T16:03:00.128Z,38.90
2023-03-13T16:05:27.029Z,39.00
2023-03-13T16:07:54.028Z,38.00
2023-03-13T16:10:26.047Z,38.90
2023-03-13T16:12:53.896Z,38.40
2023-03-13T16:15:21.023Z,38.60
2023-03-13T16:17:48.083Z,38.90
2023-03-13T16:20:17.165Z,39.10
2023-03-13T16:22:44.864Z,39.20
2023-03-13T16:25:12.248Z,39.40
2023-03-13T16:27:40.586Z,39.90
2023-03-13T16:30:18.650Z,40.30
2023-03-13T16:32:45.996Z,41.90
2023-03-13T16:35:13.007Z,42.20
2023-03-13T16:37:40.049Z,43.20
2023-03-13T16:40:15.438Z,42.40
2023-03-13T16:42:42.640Z,42.10
2023-03-13T16:45:10.084Z,42.50
2023-03-13T16:47:37.049Z,42.40
2023-03-13T16:50:12.741Z,43.50
2023-03-13T16:52:39.578Z,43.80
2023-03-13T16:55:06.820Z,43.70
2023-03-13T16:57:33.739Z,43.70
2023-03-13T17:00:00.685Z,43.80
2023-03-13T17:02:29.767Z,44.50
2023-03-13T17:04:56.760Z,44.90
2023-03-13T17:07:26.762Z,44.50
2023-03-13T17:09:53.821Z,47.20
2023-03-13T17:12:20.770Z,45.30
2023-03-13T17:14:47.873Z,45.60
2023-03-13T17:17:19.671Z,45.10
2023-03-13T17:19:46.940Z,45.50
2023-03-13T17:22:14.688Z,46.30
2023-03-13T17:24:41.729Z,46.60
2023-03-13T17:27:13.214Z,46.80
2023-03-13T17:29:40.245Z,47.00
2023-03-13T17:32:07.344Z,46.80
2023-03-13T17:34:34.330Z,47.40
2023-03-13T17:37:04.822Z,48.40
2023-03-13T17:39:31.868Z,48.50
2023-03-13T17:42:00.477Z,48.40
2023-03-13T17:44:27.388Z,48.40
2023-03-13T17:46:54.417Z,48.20
2023-03-13T17:49:21.437Z,49.00
2023-03-13T17:51:50.164Z,48.40
2023-03-13T17:54:18.607Z,49.10
2023-03-13T17:56:46.194Z,49.20
2023-03-13T17:59:14.533Z,48.60
2023-03-13T18:01:42.517Z,48.70
2023-03-13T18:04:10.546Z,49.30
2023-03-13T18:06:39.259Z,49.20
2023-03-13T18:09:08.795Z,49.20
2023-03-13T18:11:36.573Z,49.30
2023-03-13T18:14:04.490Z,50.30
2023-03-13T18:16:38.966Z,50.00
2023-03-13T18:19:15.347Z,49.50
2023-03-13T18:21:42.770Z,49.40
2023-03-13T18:24:09.679Z,49.60
2023-03-13T18:26:38.284Z,49.70
2023-03-13T18:29:14.352Z,49.80
2023-03-13T18:31:42.742Z,49.60
2023-03-13T18:34:10.760Z,49.80
2023-03-13T18:36:38.108Z,49.50
2023-03-13T18:39:06.518Z,49.70
2023-03-13T18:41:33.853Z,49.00
2023-03-13T18:44:03.612Z,48.70
2023-03-13T18:46:34.817Z,48.80
2023-03-13T18:49:01.821Z,48.90
2023-03-13T18:51:29.114Z,48.60
2023-03-13T18:53:56.225Z,48.40
2023-03-13T18:56:28.069Z,48.80
2023-03-13T18:58:55.918Z,48.30
2023-03-13T19:01:24.290Z,48.50
2023-03-13T19:03:51.900Z,49.20
2023-03-13T19:06:23.478Z,49.20
2023-03-13T19:08:51.840Z,49.10
2023-03-13T19:11:21.834Z,49.30
2023-03-13T19:13:49.090Z,49.50
2023-03-13T19:16:21.755Z,50.10
2023-03-13T19:18:48.950Z,49.60
2023-03-13T19:21:33.980Z,49.30
2023-03-13T19:24:01.335Z,48.90
2023-03-13T19:26:32.380Z,49.30
2023-03-13T19:28:59.534Z,49.20
2023-03-13T19:31:26.899Z,48.50
2023-03-13T19:33:54.539Z,49.10
2023-03-13T19:36:22.478Z,48.80
2023-03-13T19:38:49.420Z,48.40
2023-03-13T19:41:16.770Z,48.50
2023-03-13T19:43:43.823Z,48.70
2023-03-13T19:46:27.850Z,48.50
2023-03-13T19:48:56.297Z,48.90
2023-03-13T19:51:23.871Z,48.80
2023-03-13T19:53:50.864Z,48.90
2023-03-13T19:56:28.467Z,49.50
2023-03-13T19:58:59.526Z,49.80
2023-03-13T20:01:26.445Z,50.20
2023-03-13T20:03:53.511Z,49.20
2023-03-13T20:06:24.753Z,49.40
2023-03-13T20:08:55.860Z,49.60
2023-03-13T20:11:23.472Z,50.10
2023-03-13T20:13:50.401Z,49.70
2023-03-13T20:16:18.412Z,49.20
2023-03-13T20:18:48.771Z,49.60
2023-03-13T20:21:16.888Z,49.50
2023-03-13T20:23:44.358Z,49.60
2023-03-13T20:26:12.297Z,50.20
2023-03-13T20:28:40.081Z,49.90
2023-03-13T20:31:07.821Z,50.10
2023-03-13T20:33:37.203Z,49.70
2023-03-13T20:36:09.426Z,49.80
2023-03-13T20:38:36.811Z,50.50
2023-03-13T20:41:04.250Z,50.60
2023-03-13T20:43:31.862Z,51.00
2023-03-13T20:45:59.715Z,50.50
2023-03-13T20:48:26.837Z,49.90
2023-03-13T20:50:56.208Z,49.40
2023-03-13T20:53:25.969Z,49.20
2023-03-13T20:55:55.257Z,49.20
2023-03-13T20:58:22.242Z,49.00
2023-03-13T21:00:50.013Z,49.60
2023-03-13T21:03:20.201Z,49.50
2023-03-13T21:05:47.101Z,50.00
2023-03-13T21:08:14.986Z,50.40
2023-03-13T21:10:42.105Z,50.80
2023-03-13T21:13:09.721Z,51.00
2023-03-13T21:15:37.466Z,50.50
2023-03-13T21:18:05.009Z,50.50
2023-03-13T21:20:32.153Z,50.80
2023-03-13T21:22:59.028Z,50.80
2023-03-13T21:25:25.988Z,50.00
2023-03-13T21:27:52.971Z,49.50
2023-03-13T21:30:21.324Z,48.90
2023-03-13T21:32:51.253Z,50.30
2023-03-13T21:35:18.280Z,48.70
2023-03-13T21:37:45.958Z,48.90
2023-03-13T21:40:13.364Z,48.80
2023-03-13T21:42:40.686Z,48.60
2023-03-13T21:45:08.798Z,48.70
2023-03-13T21:47:48.247Z,49.00
2023-03-13T21:50:16.878Z,50.30
2023-03-13T21:52:47.126Z,49.50
2023-03-13T21:55:14.975Z,48.50
2023-03-13T21:57:42.754Z,48.40
2023-03-13T22:00:11.329Z,48.70
2023-03-13T22:02:38.429Z,49.60
2023-03-13T22:05:06.756Z,50.40
2023-03-13T22:07:34.273Z,49.10
2023-03-13T22:10:01.270Z,49.50
2023-03-13T22:12:28.548Z,48.90
2023-03-13T22:14:57.678Z,49.30
2023-03-13T22:17:24.719Z,49.10
2023-03-13T22:19:51.689Z,49.10
2023-03-13T22:22:20.191Z,50.90
2023-03-13T22:24:51.279Z,48.90
2023-03-13T22:27:19.549Z,48.80
2023-03-13T22:29:48.426Z,48.40
2023-03-13T22:32:16.927Z,49.40
2023-03-13T22:34:47.323Z,49.20
2023-03-13T22:37:14.373Z,49.70
2023-03-13T22:39:41.234Z,49.80
2023-03-13T22:42:08.155Z,49.40
2023-03-13T22:44:35.627Z,49.60
2023-03-13T22:47:02.539Z,49.70
2023-03-13T22:49:29.529Z,50.30
2023-03-13T22:51:56.586Z,50.70
2023-03-13T22:54:23.507Z,50.60
2023-03-13T22:56:50.386Z,50.00
2023-03-13T22:59:17.308Z,50.20
2023-03-13T23:01:44.283Z,50.50
2023-03-13T23:04:11.247Z,50.10
2023-03-13T23:06:38.269Z,50.50
2023-03-13T23:09:06.676Z,50.70
2023-03-13T23:11:33.851Z,50.70
2023-03-13T23:14:01.221Z,50.10
2023-03-13T23:16:28.307Z,50.30
2023-03-13T23:18:55.399Z,50.90
2023-03-13T23:21:22.411Z,50.80
2023-03-13T23:23:49.305Z,51.00
2023-03-13T23:26:19.247Z,51.30
2023-03-13T23:28:46.116Z,50.90
2023-03-13T23:31:14.584Z,51.10
2023-03-13T23:33:41.887Z,51.10
2023-03-13T23:36:10.245Z,51.10
2023-03-13T23:38:37.237Z,51.90
2023-03-13T23:41:07.900Z,51.90
2023-03-13T23:43:35.109Z,51.80
2023-03-13T23:46:02.337Z,51.00
2023-03-13T23:48:29.393Z,51.10
2023-03-13T23:50:56.561Z,51.50
2023-03-13T23:53:23.924Z,51.50
2023-03-13T23:55:59.894Z,51.60
2023-03-13T23:58:26.905Z,51.50
